createdAt,value
2023-04-17T00:13:38.009Z,100978.70
2023-04-17T00:28:41.103Z,100977.67
2023-04-17T00:43:44.318Z,100979.89
2023-04-17T00:58:49.238Z,100988.19
2023-04-17T01:13:52.424Z,100992.38
2023-04-17T01:28:58.149Z,100998.05
2023-04-17T01:44:01.485Z,101005.27
2023-04-17T01:59:06.302Z,101011.66
2023-04-17T02:14:09.389Z,101021.09
2023-04-17T02:29:12.658Z,101022.73
2023-04-17T02:44:15.942Z,101019.34
2023-04-17T02:59:19.753Z,101015.33
2023-04-17T03:14:23.014Z,101012.18
2023-04-17T03:29:26.475Z,101009.56
2023-04-17T03:44:31.391Z,101012.36
2023-04-17T03:59:34.653Z,101020.89
2023-04-17T04:14:40.433Z,101035.02
2023-04-17T04:29:49.274Z,101040.52
2023-04-17T04:44:55.716Z,101047.71
2023-04-17T05:00:00.047Z,101068.30
2023-04-17T05:15:11.348Z,101077.30
2023-04-17T05:30:16.057Z,101082.82
2023-04-17T05:45:21.854Z,101087.73
2023-04-17T06:00:26.255Z,101102.52
2023-04-17T06:15:34.903Z,101117.47
2023-04-17T06:30:38.913Z,101115.34
2023-04-17T06:45:43.274Z,101123.16
2023-04-17T07:00:46.494Z,101140.05
2023-04-17T07:15:57.124Z,101149.09
2023-04-17T07:31:00.990Z,101158.77
2023-04-17T07:46:04.345Z,101167.34
2023-04-17T08:01:08.561Z,101176.34
2023-04-17T08:16:11.869Z,101181.65
2023-04-17T08:31:15.166Z,101195.88
2023-04-17T08:46:21.947Z,101209.32
2023-04-17T09:01:25.102Z,101218.31
2023-04-17T09:16:29.331Z,101231.01
2023-04-17T09:31:34.934Z,101228.98
2023-04-17T09:46:42.974Z,101226.52
2023-04-17T10:01:46.179Z,101232.30
2023-04-17T10:16:50.754Z,101237.55
2023-04-17T10:32:09.129Z,101235.60
2023-04-17T10:47:15.480Z,101241.40
2023-04-17T11:02:34.426Z,101245.82
2023-04-17T11:17:45.772Z,101250.08
2023-04-17T11:32:49.140Z,101258.58
2023-04-17T11:47:52.702Z,101262.33
2023-04-17T12:02:58.064Z,101271.40
2023-04-17T12:18:07.035Z,101278.89
2023-04-17T12:33:10.227Z,101284.62
2023-04-17T12:48:14.449Z,101286.71
2023-04-17T13:03:17.901Z,101288.31
2023-04-17T13:18:21.183Z,101297.27
2023-04-17T13:33:24.343Z,101297.69
2023-04-17T13:48:27.477Z,101299.77
2023-04-17T14:03:30.965Z,101299.11
2023-04-17T14:18:34.686Z,101303.87
2023-04-17T14:33:37.853Z,101302.10
2023-04-17T14:50:50.973Z,101300.88
2023-04-17T15:05:54.796Z,101295.66
2023-04-17T15:20:58.609Z,101295.17
2023-04-17T15:36:01.762Z,101303.11
2023-04-17T15:51:05.273Z,101299.28
2023-04-17T16:06:08.464Z,101308.97
2023-04-17T16:21:11.841Z,101299.32
2023-04-17T16:36:15.209Z,101290.48
2023-04-17T16:51:20.566Z,101299.48
2023-04-17T17:06:24.004Z,101321.56
2023-04-17T17:21:28.309Z,101333.15
2023-04-17T17:36:31.600Z,101342.90
2023-04-17T17:51:34.855Z,101356.45
2023-04-17T18:06:38.020Z,101357.76
2023-04-17T18:21:41.341Z,101365.68
2023-04-17T18:36:45.043Z,101369.48
2023-04-17T18:51:48.700Z,101378.86
2023-04-17T19:06:51.932Z,101383.67
2023-04-17T19:21:55.520Z,101388.54
2023-04-17T19:36:58.968Z,101390.77
2023-04-17T19:52:02.247Z,101395.89
2023-04-17T20:07:05.672Z,101391.70
2023-04-17T20:22:09.420Z,101395.21
2023-04-17T20:37:12.490Z,101392.83
2023-04-17T20:52:16.035Z,101394.21
2023-04-17T21:07:19.689Z,101399.84
2023-04-17T21:22:22.961Z,101401.98
2023-04-17T21:37:25.977Z,101420.05
2023-04-17T21:52:29.042Z,101426.68
2023-04-17T22:07:38.117Z,101426.34
2023-04-17T22:22:47.766Z,101426.59
2023-04-17T22:37:51.251Z,101432.52
2023-04-17T22:52:54.287Z,101433.70
2023-04-17T23:07:57.296Z,101432.44
2023-04-17T23:23:00.316Z,101435.91
2023-04-17T23:38:03.757Z,101431.02
2023-04-17T23:53:07.293Z,101424.39
